Libourne-Artigues-de-Lussac Airport


Codes: LFDI/XLR
Name: Libourne-Artigues-de-Lussac Airport
City: Libourne/Artigues-de-Lussac
Country: France
Elevation: 157 ft.

Photos at Libourne-Artigues-de-Lussac Airport


   Photos courtesy of SpottingLog. You can add your own sightings and photos by signing up for a free trial today.



No photos found.

Weather at Libourne-Artigues-de-Lussac Airport


Time (UTC)DescriptionTempratureWindCloud coverageVisibilityPressureHumidity
25-Jun-2024 21:00Clear Sky24°C4 mph, NE0%10000m1010hPa82%
26-Jun-2024 00:00Clear Sky23°C2 mph, NE1%10000m1010hPa84%
26-Jun-2024 03:00Clear Sky21°C2 mph, SE0%10000m1009hPa86%
26-Jun-2024 06:00Clear Sky21°C2 mph, SE0%10000m1010hPa82%
26-Jun-2024 09:00Few Clouds26°C4 mph, SE12%10000m1011hPa64%
26-Jun-2024 12:00Clear Sky30°C4 mph, S8%10000m1010hPa51%
26-Jun-2024 15:00Clear Sky31°C4 mph, SW6%10000m1009hPa45%
26-Jun-2024 18:00Clear Sky30°C0 mph, N7%10000m1009hPa57%
26-Jun-2024 21:00Clear Sky23°C2 mph, NE0%10000m1011hPa77%
27-Jun-2024 00:00Clear Sky21°C4 mph, N3%10000m1011hPa88%
27-Jun-2024 03:00Overcast Clouds20°C2 mph, S89%10000m1010hPa89%
27-Jun-2024 06:00Light Rain21°C2 mph, S86%10000m1012hPa92%
27-Jun-2024 09:00Light Rain25°C4 mph, S100%10000m1012hPa80%
27-Jun-2024 12:00Overcast Clouds29°C4 mph, SW91%10000m1012hPa62%
27-Jun-2024 15:00Broken Clouds31°C4 mph, SW59%10000m1012hPa53%
27-Jun-2024 18:00Light Rain24°C11 mph, NW78%10000m1013hPa84%
27-Jun-2024 21:00Light Rain19°C4 mph, NW100%10000m1015hPa86%
28-Jun-2024 00:00Overcast Clouds17°C4 mph, NW100%10000m1016hPa86%
28-Jun-2024 03:00Scattered Clouds16°C4 mph, NW45%10000m1017hPa79%
28-Jun-2024 06:00Scattered Clouds18°C4 mph, N32%10000m1017hPa81%
28-Jun-2024 09:00Scattered Clouds24°C4 mph, N48%10000m1017hPa61%
28-Jun-2024 12:00Scattered Clouds28°C4 mph, NE43%10000m1016hPa52%
28-Jun-2024 15:00Few Clouds29°C4 mph, NE13%10000m1015hPa52%
28-Jun-2024 18:00Scattered Clouds27°C7 mph, N30%10000m1013hPa66%
28-Jun-2024 21:00Scattered Clouds21°C7 mph, N32%10000m1013hPa83%
29-Jun-2024 00:00Few Clouds20°C4 mph, N20%10000m1011hPa95%
29-Jun-2024 03:00Light Rain19°C2 mph, SW31%10000m1010hPa97%
29-Jun-2024 06:00Light Rain20°C2 mph, S63%10000m1010hPa95%
29-Jun-2024 09:00Moderate Rain22°C4 mph, S100%10000m1010hPa92%
29-Jun-2024 12:00Moderate Rain20°C2 mph, N100%4071m1008hPa99%
29-Jun-2024 15:00Heavy Intensity Rain18°C11 mph, W100%583m1009hPa98%
29-Jun-2024 18:00Light Rain16°C11 mph, W100%10000m1012hPa96%
29-Jun-2024 21:00Light Rain16°C7 mph, W99%10000m1014hPa96%
30-Jun-2024 00:00Light Rain16°C2 mph, W99%10000m1015hPa95%
30-Jun-2024 03:00Overcast Clouds15°C4 mph, SW100%10000m1015hPa94%
30-Jun-2024 06:00Light Rain15°C4 mph, S94%10000m1015hPa93%
30-Jun-2024 09:00Overcast Clouds19°C9 mph, SW97%10000m1015hPa71%
30-Jun-2024 12:00Overcast Clouds19°C11 mph, W89%10000m1015hPa76%
30-Jun-2024 15:00Light Rain20°C13 mph, W89%10000m1015hPa75%
30-Jun-2024 18:00Light Rain19°C9 mph, W68%10000m1016hPa81%